Kakamas Airport


Codes: FAKK/
Name: Kakamas Airport
City: Kakamas
Country: South Africa
Elevation: 2322 ft.

Photos at Kakamas Airport


   Photos courtesy of SpottingLog. You can add your own sightings and photos by signing up for a free trial today.



No photos found.

Weather at Kakamas Airport


Time (UTC)DescriptionTempratureWindCloud coverageVisibilityPressureHumidity
15-Apr-2024 15:00Clear Sky29°C9 mph, W0%10000m1012hPa15%
15-Apr-2024 18:00Clear Sky27°C9 mph, W0%10000m1012hPa17%
15-Apr-2024 21:00Clear Sky24°C9 mph, SW0%10000m1013hPa21%
16-Apr-2024 00:00Clear Sky18°C7 mph, S0%10000m1014hPa31%
16-Apr-2024 03:00Clear Sky17°C4 mph, S0%10000m1014hPa38%
16-Apr-2024 06:00Clear Sky19°C2 mph, SW0%10000m1016hPa35%
16-Apr-2024 09:00Clear Sky25°C2 mph, NW0%10000m1015hPa21%
16-Apr-2024 12:00Clear Sky29°C9 mph, NW0%10000m1012hPa14%
16-Apr-2024 15:00Clear Sky29°C9 mph, W0%10000m1010hPa12%
16-Apr-2024 18:00Clear Sky23°C11 mph, SW0%10000m1011hPa19%
16-Apr-2024 21:00Clear Sky21°C7 mph, S0%10000m1013hPa20%
17-Apr-2024 00:00Clear Sky19°C4 mph, SE0%10000m1013hPa24%
17-Apr-2024 03:00Clear Sky17°C4 mph, NE0%10000m1013hPa39%
17-Apr-2024 06:00Clear Sky18°C9 mph, NE0%10000m1015hPa67%
17-Apr-2024 09:00Clear Sky26°C13 mph, N0%10000m1014hPa35%
17-Apr-2024 12:00Clear Sky30°C9 mph, NW0%10000m1012hPa15%
17-Apr-2024 15:00Clear Sky30°C7 mph, NW0%10000m1011hPa12%
17-Apr-2024 18:00Clear Sky24°C7 mph, SW0%10000m1014hPa15%
17-Apr-2024 21:00Clear Sky22°C4 mph, S0%10000m1015hPa16%
18-Apr-2024 00:00Clear Sky21°C7 mph, E0%10000m1015hPa20%
18-Apr-2024 03:00Clear Sky18°C4 mph, E5%10000m1016hPa36%
18-Apr-2024 06:00Clear Sky20°C7 mph, NE4%10000m1018hPa51%
18-Apr-2024 09:00Clear Sky29°C11 mph, N7%10000m1017hPa36%
18-Apr-2024 12:00Few Clouds33°C9 mph, N15%10000m1014hPa18%
18-Apr-2024 15:00Broken Clouds33°C7 mph, NW75%10000m1013hPa16%
18-Apr-2024 18:00Scattered Clouds26°C2 mph, S42%10000m1014hPa25%
18-Apr-2024 21:00Broken Clouds26°C4 mph, E52%10000m1016hPa28%
19-Apr-2024 00:00Scattered Clouds23°C4 mph, NE44%10000m1016hPa37%
19-Apr-2024 03:00Broken Clouds21°C4 mph, NE83%10000m1016hPa45%
19-Apr-2024 06:00Overcast Clouds23°C4 mph, NE91%10000m1017hPa45%
19-Apr-2024 09:00Broken Clouds31°C16 mph, N65%10000m1016hPa29%
19-Apr-2024 12:00Scattered Clouds36°C11 mph, N36%10000m1013hPa15%
19-Apr-2024 15:00Scattered Clouds36°C9 mph, NW30%10000m1011hPa12%
19-Apr-2024 18:00Broken Clouds29°C4 mph, NE65%10000m1012hPa19%
19-Apr-2024 21:00Overcast Clouds26°C4 mph, N95%10000m1013hPa24%
20-Apr-2024 00:00Overcast Clouds23°C2 mph, NE87%10000m1014hPa32%
20-Apr-2024 03:00Scattered Clouds22°C4 mph, E34%10000m1014hPa35%
20-Apr-2024 06:00Scattered Clouds23°C0 mph, NE44%10000m1015hPa34%
20-Apr-2024 09:00Overcast Clouds30°C4 mph, NW99%10000m1014hPa21%
20-Apr-2024 12:00Broken Clouds35°C9 mph, NW64%10000m1011hPa13%